createdAt,value
2022-11-15T00:00:30.805Z,18.77
2022-11-15T00:02:57.168Z,19.02
2022-11-15T00:05:23.687Z,18.52
2022-11-15T00:07:55.643Z,18.08
2022-11-15T00:10:22.619Z,18.77
2022-11-15T00:12:49.006Z,17.55
2022-11-15T00:15:15.373Z,18.50
2022-11-15T00:17:41.711Z,18.75
2022-11-15T00:20:08.771Z,18.40
2022-11-15T00:22:35.169Z,19.63
2022-11-15T00:25:01.730Z,17.92
2022-11-15T00:27:28.403Z,19.05
2022-11-15T00:29:54.807Z,18.67
2022-11-15T00:32:21.243Z,18.65
2022-11-15T00:34:47.572Z,18.27
2022-11-15T00:37:13.970Z,19.52
2022-11-15T00:39:40.301Z,17.52
2022-11-15T00:42:06.717Z,17.40
2022-11-15T00:44:33.065Z,19.45
2022-11-15T00:46:59.391Z,18.42
2022-11-15T00:49:25.776Z,18.35
2022-11-15T00:51:52.331Z,18.05
2022-11-15T00:54:18.756Z,17.70
2022-11-15T00:56:45.097Z,18.70
2022-11-15T00:59:11.479Z,17.90
2022-11-15T01:01:37.822Z,18.23
2022-11-15T01:04:04.544Z,18.80
2022-11-15T01:06:30.849Z,18.85
2022-11-15T01:08:57.172Z,18.80
2022-11-15T01:11:23.516Z,18.00
2022-11-15T01:13:49.818Z,18.52
2022-11-15T01:16:19.438Z,19.15
2022-11-15T01:18:46.590Z,18.85
2022-11-15T01:21:14.255Z,20.20
2022-11-15T01:23:40.594Z,17.00
2022-11-15T01:26:08.114Z,17.88
2022-11-15T01:28:35.492Z,18.20
2022-11-15T01:31:02.565Z,17.27
2022-11-15T01:33:31.140Z,18.42
2022-11-15T01:35:57.900Z,19.38
2022-11-15T01:38:24.216Z,17.58
2022-11-15T01:40:50.607Z,17.95
2022-11-15T01:43:30.694Z,17.98
2022-11-15T01:46:05.185Z,18.20
2022-11-15T01:48:33.313Z,17.40
2022-11-15T01:51:02.189Z,18.65
2022-11-15T01:53:29.970Z,20.08
2022-11-15T01:55:56.743Z,19.20
2022-11-15T01:58:23.249Z,17.95
2022-11-15T02:00:50.672Z,19.20
2022-11-15T02:03:17.352Z,18.10
2022-11-15T02:05:44.257Z,19.20
2022-11-15T02:08:21.242Z,17.52
2022-11-15T02:10:48.081Z,18.25
2022-11-15T02:13:18.354Z,19.42
2022-11-15T02:15:49.548Z,19.63
2022-11-15T02:18:27.625Z,19.73
2022-11-15T02:21:03.775Z,18.10
2022-11-15T02:23:42.482Z,19.80
2022-11-15T02:26:08.787Z,18.67
2022-11-15T02:28:47.294Z,20.08
2022-11-15T02:31:29.518Z,20.80
2022-11-15T02:34:07.903Z,18.50
2022-11-15T02:36:42.557Z,19.30
2022-11-15T02:39:12.532Z,19.58
2022-11-15T02:41:44.939Z,18.02
2022-11-15T02:44:11.244Z,17.30
2022-11-15T02:47:02.590Z,17.42
2022-11-15T02:49:30.381Z,19.50
2022-11-15T02:51:56.941Z,18.67
2022-11-15T02:54:24.918Z,18.73
2022-11-15T02:56:53.504Z,19.95
2022-11-15T02:59:19.806Z,19.63
2022-11-15T03:01:46.144Z,19.15
2022-11-15T03:04:20.439Z,18.92
2022-11-15T03:06:53.865Z,18.88
2022-11-15T03:09:26.130Z,17.92
2022-11-15T03:12:09.171Z,18.35
2022-11-15T03:14:38.795Z,16.98
2022-11-15T03:17:20.147Z,17.40
2022-11-15T03:19:48.587Z,18.27
2022-11-15T03:22:17.429Z,16.67
2022-11-15T03:24:45.110Z,19.38
2022-11-15T03:27:13.367Z,17.20
2022-11-15T03:29:46.428Z,17.95
2022-11-15T03:32:14.991Z,18.33
2022-11-15T03:34:56.721Z,17.60
2022-11-15T03:37:25.425Z,18.23
2022-11-15T03:39:51.910Z,18.10
2022-11-15T03:42:21.010Z,18.38
2022-11-15T03:44:51.069Z,17.48
2022-11-15T03:47:17.457Z,20.02
2022-11-15T03:49:46.225Z,18.40
2022-11-15T03:52:13.086Z,18.25
2022-11-15T03:54:48.655Z,18.08
2022-11-15T03:57:15.047Z,19.85
2022-11-15T03:59:41.392Z,17.42
2022-11-15T04:02:07.788Z,19.17
2022-11-15T04:04:34.141Z,20.17
2022-11-15T04:07:00.798Z,18.80
2022-11-15T04:09:27.217Z,18.15
2022-11-15T04:11:53.540Z,18.98
2022-11-15T04:14:19.864Z,19.17
2022-11-15T04:16:46.241Z,18.48
2022-11-15T04:19:35.766Z,18.63
2022-11-15T04:22:22.214Z,18.80
2022-11-15T04:24:48.510Z,18.27
2022-11-15T04:27:15.098Z,18.92
2022-11-15T04:29:41.518Z,19.50
2022-11-15T04:32:08.068Z,18.35
2022-11-15T04:34:34.518Z,18.52
2022-11-15T04:37:12.991Z,18.48
2022-11-15T04:39:40.328Z,18.97
2022-11-15T04:42:06.693Z,18.60
2022-11-15T04:44:33.066Z,19.33
2022-11-15T04:46:59.410Z,19.30
2022-11-15T04:49:25.747Z,18.77
2022-11-15T04:51:52.226Z,19.70
2022-11-15T04:54:18.954Z,18.95
2022-11-15T04:56:45.263Z,19.00
2022-11-15T04:59:11.631Z,20.35
2022-11-15T05:01:43.613Z,19.15
2022-11-15T05:04:20.372Z,20.13
2022-11-15T05:06:50.715Z,19.30
2022-11-15T05:09:17.685Z,19.08
2022-11-15T05:11:44.198Z,18.23
2022-11-15T05:14:10.558Z,18.88
2022-11-15T05:16:37.207Z,18.92
2022-11-15T05:19:04.185Z,18.33
2022-11-15T05:21:31.205Z,19.75
2022-11-15T05:23:57.652Z,19.63
2022-11-15T05:26:24.285Z,18.30
2022-11-15T05:28:55.156Z,19.20
2022-11-15T05:31:21.604Z,19.98
2022-11-15T05:33:49.228Z,17.45
2022-11-15T05:36:15.528Z,19.38
2022-11-15T05:38:42.650Z,18.83
2022-11-15T05:41:09.290Z,19.17
2022-11-15T05:43:37.261Z,19.73
2022-11-15T05:46:04.277Z,20.02
2022-11-15T05:48:30.821Z,19.88
2022-11-15T05:50:57.409Z,20.02
2022-11-15T05:53:24.627Z,20.73
2022-11-15T05:55:51.520Z,18.65
2022-11-15T05:58:18.298Z,20.70
2022-11-15T06:00:47.386Z,20.60
2022-11-15T06:03:15.183Z,19.08
2022-11-15T06:05:41.629Z,19.92
2022-11-15T06:08:07.944Z,19.95
2022-11-15T06:10:34.411Z,21.23
2022-11-15T06:13:02.001Z,19.83
2022-11-15T06:15:28.457Z,18.95
2022-11-15T06:17:58.324Z,20.23
2022-11-15T06:20:28.282Z,20.52
2022-11-15T06:23:17.556Z,19.70
2022-11-15T06:25:43.887Z,18.48
2022-11-15T06:28:10.232Z,19.95
2022-11-15T06:30:36.863Z,20.10
2022-11-15T06:33:04.147Z,19.35
2022-11-15T06:35:31.282Z,20.25
2022-11-15T06:38:02.722Z,20.05
2022-11-15T06:40:29.088Z,20.05
2022-11-15T06:42:59.165Z,19.13
2022-11-15T06:45:25.818Z,18.80
2022-11-15T06:47:52.465Z,20.15
2022-11-15T06:50:18.998Z,19.20
2022-11-15T06:52:45.377Z,18.67
2022-11-15T06:55:11.697Z,19.42
2022-11-15T06:57:38.148Z,19.90
2022-11-15T07:00:07.731Z,19.85
2022-11-15T07:02:34.086Z,19.35
2022-11-15T07:05:00.417Z,21.58
2022-11-15T07:07:26.914Z,20.33
2022-11-15T07:09:53.461Z,19.77
2022-11-15T07:12:19.869Z,19.33
2022-11-15T07:14:46.243Z,18.98
2022-11-15T07:17:12.599Z,19.38
2022-11-15T07:19:38.914Z,18.60
2022-11-15T07:22:05.267Z,19.70
2022-11-15T07:24:31.591Z,19.95
2022-11-15T07:26:57.919Z,20.83
2022-11-15T07:29:24.353Z,19.05
2022-11-15T07:31:51.526Z,18.38
2022-11-15T07:34:17.859Z,18.75
2022-11-15T07:36:44.552Z,19.15
2022-11-15T07:39:13.054Z,19.92
2022-11-15T07:41:39.785Z,20.65
2022-11-15T07:44:06.290Z,19.30
2022-11-15T07:46:32.871Z,19.42
2022-11-15T07:48:59.273Z,18.50
2022-11-15T07:51:26.029Z,19.85
2022-11-15T07:53:52.376Z,19.73
2022-11-15T07:56:18.809Z,20.05
2022-11-15T07:58:46.540Z,19.85
2022-11-15T08:01:13.463Z,19.20
2022-11-15T08:03:40.097Z,18.70
2022-11-15T08:06:06.619Z,19.92
2022-11-15T08:08:33.012Z,19.77
2022-11-15T08:11:00.085Z,19.75
2022-11-15T08:13:26.543Z,20.33
2022-11-15T08:15:57.532Z,18.23
2022-11-15T08:18:24.288Z,18.95
2022-11-15T08:20:50.701Z,20.30
2022-11-15T08:23:17.043Z,19.00
2022-11-15T08:25:43.503Z,20.15
2022-11-15T08:28:11.344Z,20.30
2022-11-15T08:30:38.677Z,19.60
2022-11-15T08:33:05.629Z,19.85
2022-11-15T08:35:31.970Z,19.98
2022-11-15T08:37:58.299Z,19.85
2022-11-15T08:40:24.923Z,19.70
2022-11-15T08:42:51.782Z,18.42
2022-11-15T08:45:18.110Z,20.23
2022-11-15T08:47:45.681Z,19.48
2022-11-15T08:50:13.790Z,20.00
2022-11-15T08:52:40.176Z,20.60
2022-11-15T08:55:06.782Z,19.35
2022-11-15T08:57:33.117Z,20.58
2022-11-15T08:59:59.427Z,20.10
2022-11-15T09:02:25.747Z,20.00
2022-11-15T09:04:52.090Z,20.80
2022-11-15T09:07:18.911Z,20.55
2022-11-15T09:09:45.355Z,20.48
2022-11-15T09:12:11.731Z,20.92
2022-11-15T09:14:38.144Z,20.30
2022-11-15T09:17:04.804Z,20.27
2022-11-15T09:19:31.310Z,20.70
2022-11-15T09:21:57.719Z,20.48
2022-11-15T09:24:24.068Z,20.02
2022-11-15T09:26:51.213Z,20.13
2022-11-15T09:29:17.825Z,19.73
2022-11-15T09:31:44.193Z,20.80
2022-11-15T09:34:10.714Z,19.95
2022-11-15T09:36:37.125Z,19.52
2022-11-15T09:39:03.806Z,21.25
2022-11-15T09:41:59.741Z,20.65
2022-11-15T09:44:35.047Z,19.25
2022-11-15T09:47:07.519Z,21.15
2022-11-15T09:49:33.928Z,19.85
2022-11-15T09:52:00.613Z,19.50
2022-11-15T09:57:23.950Z,19.17
2022-11-15T09:59:50.273Z,18.67
2022-11-15T10:02:35.552Z,19.67
2022-11-15T10:05:02.374Z,19.38
2022-11-15T10:07:38.023Z,19.73
2022-11-15T10:10:24.716Z,18.77
2022-11-15T10:12:52.271Z,19.13
2022-11-15T10:15:25.100Z,18.80
2022-11-15T10:17:51.748Z,19.23
2022-11-15T10:20:18.209Z,17.67
2022-11-15T10:22:44.952Z,17.98
2022-11-15T10:25:31.200Z,18.85
2022-11-15T10:27:57.536Z,18.52
2022-11-15T10:30:24.575Z,18.98
2022-11-15T10:32:51.008Z,18.70
2022-11-15T10:35:28.132Z,19.02
2022-11-15T10:38:05.629Z,18.20
2022-11-15T10:40:32.020Z,17.38
2022-11-15T10:43:06.179Z,18.02
2022-11-15T10:45:33.812Z,15.82
2022-11-15T10:48:20.448Z,18.30
2022-11-15T10:50:48.117Z,16.58
2022-11-15T10:53:25.440Z,16.80
2022-11-15T10:55:54.568Z,16.77
2022-11-15T10:58:23.537Z,17.23
2022-11-15T11:00:49.978Z,17.00
2022-11-15T11:03:45.661Z,16.63
2022-11-15T11:06:13.974Z,17.52
2022-11-15T11:08:40.594Z,16.95
2022-11-15T11:11:08.501Z,17.10
2022-11-15T11:13:39.275Z,16.92
2022-11-15T11:16:14.856Z,17.67
2022-11-15T11:18:41.187Z,16.45
2022-11-15T11:21:12.872Z,16.63
2022-11-15T11:23:39.238Z,17.63
2022-11-15T11:26:20.116Z,17.70
2022-11-15T11:28:52.699Z,16.35
2022-11-15T11:31:37.771Z,16.33
2022-11-15T11:34:15.743Z,18.13
2022-11-15T11:36:51.172Z,17.52
2022-11-15T11:39:17.553Z,17.15
2022-11-15T11:41:47.578Z,16.80
2022-11-15T11:44:23.838Z,18.00
2022-11-15T11:46:50.753Z,17.20
2022-11-15T11:49:21.652Z,18.45
2022-11-15T11:52:04.531Z,19.05
2022-11-15T11:54:36.915Z,18.88
2022-11-15T11:57:05.963Z,18.95
2022-11-15T11:59:42.885Z,17.25
2022-11-15T12:02:13.828Z,17.58
2022-11-15T12:04:41.540Z,17.05
2022-11-15T12:07:21.124Z,17.15
2022-11-15T12:09:54.112Z,18.20
2022-11-15T12:12:32.452Z,17.55
2022-11-15T12:15:02.100Z,18.77
2022-11-15T12:17:33.169Z,16.65
2022-11-15T12:20:00.865Z,16.45
2022-11-15T12:23:02.614Z,16.73
2022-11-15T12:25:47.054Z,15.25
2022-11-15T12:28:13.358Z,16.58
2022-11-15T12:30:51.565Z,16.13
2022-11-15T12:33:31.390Z,16.88
2022-11-15T12:35:59.299Z,14.70
2022-11-15T12:38:45.900Z,16.25
2022-11-15T12:41:16.585Z,13.93
2022-11-15T12:43:43.847Z,13.45
2022-11-15T12:46:24.252Z,14.23
2022-11-15T12:48:52.633Z,12.88
2022-11-15T12:51:20.715Z,14.45
2022-11-15T12:53:47.203Z,13.27
2022-11-15T12:56:13.562Z,14.02
2022-11-15T12:58:47.360Z,12.75
2022-11-15T13:01:32.540Z,15.02
2022-11-15T13:04:17.816Z,13.25
2022-11-15T13:06:48.522Z,12.93
2022-11-15T13:09:33.394Z,12.95
2022-11-15T13:12:08.737Z,12.73
2022-11-15T13:14:38.429Z,12.50
2022-11-15T13:17:17.203Z,12.60
2022-11-15T13:19:45.034Z,11.93
2022-11-15T13:22:29.896Z,12.70
2022-11-15T13:24:56.543Z,12.50
2022-11-15T13:27:22.964Z,13.68
2022-11-15T13:29:49.337Z,11.55
2022-11-15T13:32:16.719Z,12.35
2022-11-15T13:34:52.071Z,13.05
2022-11-15T13:37:21.999Z,11.57
2022-11-15T13:42:18.745Z,10.65
2022-11-15T13:44:58.831Z,11.93
2022-11-15T13:47:28.050Z,10.88
2022-11-15T13:49:54.523Z,11.40
2022-11-15T13:52:21.863Z,11.98
2022-11-15T13:54:59.698Z,10.95
2022-11-15T13:57:28.765Z,11.32
2022-11-15T14:00:04.276Z,12.40
2022-11-15T14:02:32.150Z,10.15
2022-11-15T14:05:06.330Z,10.57
2022-11-15T14:07:33.573Z,10.32
2022-11-15T14:10:17.675Z,10.38
2022-11-15T14:12:51.897Z,10.32
2022-11-15T14:15:47.679Z,10.30
2022-11-15T14:18:34.388Z,9.82
2022-11-15T14:21:08.039Z,10.23
2022-11-15T14:23:34.747Z,9.40
2022-11-15T14:26:01.110Z,9.98
2022-11-15T14:28:27.413Z,9.18
2022-11-15T14:30:54.741Z,10.75
2022-11-15T14:33:34.726Z,10.05
2022-11-15T14:36:11.850Z,9.60
2022-11-15T14:38:38.169Z,10.30
2022-11-15T14:41:04.635Z,11.20
2022-11-15T14:43:31.025Z,9.05
2022-11-15T14:45:57.399Z,10.13
2022-11-15T14:48:23.836Z,9.30
2022-11-15T14:50:50.406Z,8.98
2022-11-15T14:53:17.569Z,9.25
2022-11-15T14:55:44.248Z,8.57
2022-11-15T14:58:10.859Z,8.00
2022-11-15T15:00:37.892Z,9.48
2022-11-15T15:03:04.878Z,9.77
2022-11-15T15:05:35.486Z,9.45
2022-11-15T15:08:02.376Z,7.97
2022-11-15T15:10:40.083Z,9.82
2022-11-15T15:13:13.250Z,9.18
2022-11-15T15:15:39.637Z,9.25
2022-11-15T15:18:06.071Z,9.50
2022-11-15T15:20:32.896Z,9.73
2022-11-15T15:22:59.259Z,9.23
2022-11-15T15:25:30.187Z,9.77
2022-11-15T15:27:56.632Z,8.15
2022-11-15T15:30:23.941Z,8.55
2022-11-15T15:32:50.341Z,8.73
2022-11-15T15:35:17.238Z,8.82
2022-11-15T15:37:44.381Z,8.52
2022-11-15T15:40:16.963Z,8.93
2022-11-15T15:42:43.462Z,9.00
2022-11-15T15:45:10.211Z,8.82
2022-11-15T15:47:36.733Z,9.48
2022-11-15T15:50:03.685Z,8.55
2022-11-15T15:52:30.161Z,9.05
2022-11-15T15:54:56.479Z,9.95
2022-11-15T15:57:22.875Z,9.60
2022-11-15T15:59:49.203Z,8.73
2022-11-15T16:02:15.759Z,9.18
2022-11-15T16:04:42.174Z,8.68
2022-11-15T16:07:16.538Z,9.10
2022-11-15T16:10:01.052Z,9.05
2022-11-15T16:12:36.472Z,8.70
2022-11-15T16:15:03.599Z,8.60
2022-11-15T16:17:34.311Z,9.20
2022-11-15T16:20:01.007Z,9.77
2022-11-15T16:22:27.401Z,9.05
2022-11-15T16:24:55.081Z,8.43
2022-11-15T16:27:24.836Z,9.18
2022-11-15T16:29:51.271Z,8.85
2022-11-15T16:32:20.970Z,9.02
2022-11-15T16:34:49.277Z,9.88
2022-11-15T16:37:22.989Z,9.18
2022-11-15T16:39:49.494Z,8.77
2022-11-15T16:42:15.908Z,8.88
2022-11-15T16:44:42.717Z,9.05
2022-11-15T16:47:16.179Z,9.98
2022-11-15T16:49:43.966Z,7.97
2022-11-15T16:52:10.295Z,10.05
2022-11-15T16:54:36.656Z,9.93
2022-11-15T16:57:03.051Z,10.27
2022-11-15T16:59:35.594Z,10.20
2022-11-15T17:02:04.463Z,9.65
2022-11-15T17:04:33.763Z,10.25
2022-11-15T17:07:00.231Z,11.07
2022-11-15T17:09:26.782Z,10.50
2022-11-15T17:11:56.129Z,10.45
2022-11-15T17:14:22.567Z,11.05
2022-11-15T17:16:49.342Z,10.18
2022-11-15T17:19:17.572Z,10.45
2022-11-15T17:21:44.833Z,10.88
2022-11-15T17:24:11.608Z,9.57
2022-11-15T17:26:40.717Z,11.05
2022-11-15T17:31:37.853Z,9.85
2022-11-15T17:34:04.871Z,10.45
2022-11-15T17:36:31.196Z,9.82
2022-11-15T17:38:59.726Z,10.05
2022-11-15T17:41:28.147Z,9.80
2022-11-15T17:43:55.977Z,8.98
2022-11-15T17:46:22.563Z,9.32
2022-11-15T17:48:49.168Z,7.88
2022-11-15T17:51:16.843Z,8.30
2022-11-15T17:53:44.442Z,7.55
2022-11-15T17:56:12.382Z,7.78
2022-11-15T17:58:38.755Z,7.47
2022-11-15T18:01:09.389Z,7.20
2022-11-15T18:03:36.519Z,6.95
2022-11-15T18:06:03.850Z,6.22
2022-11-15T18:08:30.189Z,6.25
2022-11-15T18:11:07.877Z,5.68
2022-11-15T18:13:35.700Z,4.50
2022-11-15T18:16:04.525Z,4.55
2022-11-15T18:18:34.546Z,2.88
2022-11-15T18:21:04.390Z,3.10
2022-11-15T18:23:31.431Z,2.80
2022-11-15T18:25:58.152Z,2.20
2022-11-15T18:28:29.435Z,1.80
2022-11-15T18:30:55.793Z,1.70
2022-11-15T18:33:22.163Z,1.00
2022-11-15T18:35:48.681Z,0.95
2022-11-15T18:38:14.997Z,1.10
2022-11-15T18:40:41.424Z,1.27
2022-11-15T18:43:08.201Z,0.77
2022-11-15T18:45:35.213Z,0.85
2022-11-15T18:48:02.123Z,0.82
2022-11-15T18:50:29.315Z,0.90
2022-11-15T18:52:55.982Z,0.70
2022-11-15T18:55:22.316Z,0.80
2022-11-15T18:57:48.732Z,0.75
2022-11-15T19:00:15.390Z,0.60
2022-11-15T19:02:43.183Z,0.90
2022-11-15T19:05:09.547Z,0.45
2022-11-15T19:07:37.276Z,0.70
2022-11-15T19:10:03.914Z,0.40
2022-11-15T19:12:30.349Z,0.60
2022-11-15T19:14:56.695Z,0.40
2022-11-15T19:17:23.051Z,0.45
2022-11-15T19:19:49.433Z,0.30
2022-11-15T19:22:15.766Z,0.40
2022-11-15T19:24:42.152Z,0.40
2022-11-15T19:27:09.301Z,0.38
2022-11-15T19:29:35.689Z,0.20
2022-11-15T19:32:03.498Z,0.28
2022-11-15T19:34:29.908Z,0.30
2022-11-15T19:36:56.309Z,0.30
2022-11-15T19:39:22.692Z,0.20
2022-11-15T19:41:50.132Z,0.30
2022-11-15T19:44:16.548Z,0.40
2022-11-15T19:46:44.225Z,0.45
2022-11-15T19:49:11.494Z,0.30
2022-11-15T19:51:38.963Z,0.30
2022-11-15T19:54:09.723Z,0.32
2022-11-15T19:56:36.624Z,0.30
2022-11-15T19:59:03.528Z,0.40
2022-11-15T20:01:31.351Z,0.30
2022-11-15T20:04:00.267Z,0.40
2022-11-15T20:06:28.711Z,0.50
2022-11-15T20:08:55.140Z,0.73
2022-11-15T20:11:21.901Z,0.38
2022-11-15T20:13:48.511Z,0.50
2022-11-15T20:16:16.639Z,0.47
2022-11-15T20:18:43.593Z,0.40
2022-11-15T20:21:10.059Z,0.50
2022-11-15T20:23:36.424Z,0.43
2022-11-15T20:26:03.035Z,0.32
2022-11-15T20:28:29.423Z,0.50
2022-11-15T20:30:57.389Z,0.63
2022-11-15T20:33:24.134Z,0.57
2022-11-15T20:35:50.920Z,0.50
2022-11-15T20:38:17.804Z,0.57
2022-11-15T20:40:48.134Z,0.50
2022-11-15T20:43:15.517Z,0.68
2022-11-15T20:45:46.060Z,0.52
2022-11-15T20:48:16.026Z,0.70
2022-11-15T20:50:43.623Z,0.80
2022-11-15T20:53:13.047Z,0.65
2022-11-15T20:55:43.345Z,0.88
2022-11-15T20:58:10.614Z,0.90
2022-11-15T21:00:37.875Z,0.65
2022-11-15T21:03:07.941Z,0.52
2022-11-15T21:05:37.466Z,0.73
2022-11-15T21:10:50.761Z,0.52
2022-11-15T21:13:17.164Z,0.65
2022-11-15T21:15:44.082Z,0.60
2022-11-15T21:18:11.832Z,0.47
2022-11-15T21:20:38.179Z,0.50
2022-11-15T21:23:04.593Z,0.50
2022-11-15T21:25:32.903Z,0.70
2022-11-15T21:27:59.265Z,0.60
2022-11-15T21:30:25.916Z,0.80
2022-11-15T21:32:52.305Z,0.70
2022-11-15T21:35:18.769Z,0.80
2022-11-15T21:37:45.149Z,0.65
2022-11-15T21:40:11.765Z,0.70
2022-11-15T21:42:38.109Z,0.85
2022-11-15T21:45:04.678Z,0.60
2022-11-15T21:47:31.265Z,0.60
2022-11-15T21:49:57.678Z,0.70
2022-11-15T21:52:24.017Z,0.70
2022-11-15T21:54:50.438Z,0.65
2022-11-15T21:57:18.938Z,1.30
2022-11-15T22:00:04.000Z,0.93
2022-11-15T22:02:30.297Z,0.57
2022-11-15T22:04:56.714Z,0.75
2022-11-15T22:07:26.008Z,0.88
2022-11-15T22:09:52.450Z,0.60
2022-11-15T22:12:18.795Z,0.55
2022-11-15T22:14:45.160Z,0.68
2022-11-15T22:17:11.886Z,0.85
2022-11-15T22:19:51.871Z,0.60
2022-11-15T22:22:19.094Z,0.40
2022-11-15T22:24:45.434Z,0.73
2022-11-15T22:27:11.756Z,0.52
2022-11-15T22:29:38.116Z,0.50
2022-11-15T22:32:04.811Z,0.65
2022-11-15T22:34:31.189Z,0.50
2022-11-15T22:39:44.007Z,0.70
2022-11-15T22:42:10.378Z,0.65
2022-11-15T22:44:36.694Z,0.95
2022-11-15T22:47:03.422Z,0.90
2022-11-15T22:49:29.781Z,0.80
2022-11-15T22:51:56.126Z,0.63
2022-11-15T22:54:22.625Z,0.65
2022-11-15T22:56:49.020Z,0.90
2022-11-15T22:59:15.386Z,0.80
2022-11-15T23:01:41.939Z,0.85
2022-11-15T23:04:08.374Z,0.90
2022-11-15T23:06:34.912Z,0.60
2022-11-15T23:09:01.322Z,0.88
2022-11-15T23:11:46.621Z,1.05
2022-11-15T23:14:13.046Z,0.75
2022-11-15T23:16:39.763Z,0.40
2022-11-15T23:19:10.712Z,0.70
2022-11-15T23:21:56.843Z,0.50
2022-11-15T23:24:23.496Z,0.80
2022-11-15T23:26:50.897Z,0.95
2022-11-15T23:29:18.610Z,0.70
2022-11-15T23:32:04.168Z,0.50
2022-11-15T23:34:31.233Z,0.70
2022-11-15T23:36:57.754Z,0.50
2022-11-15T23:39:24.150Z,0.63
2022-11-15T23:41:50.484Z,0.70
2022-11-15T23:44:16.923Z,0.68
2022-11-15T23:46:43.682Z,0.60
2022-11-15T23:49:10.134Z,0.47
2022-11-15T23:51:36.499Z,0.60
2022-11-15T23:54:03.187Z,0.40
2022-11-15T23:56:29.669Z,0.50
2022-11-15T23:58:56.058Z,0.30
